createdAt,value
2023-01-05T00:04:58.859Z,101710.06
2023-01-05T00:10:38.886Z,101715.00
2023-01-05T00:16:18.901Z,101726.56
2023-01-05T00:21:59.358Z,101723.16
2023-01-05T00:27:21.020Z,101721.47
2023-01-05T00:32:43.783Z,101720.84
2023-01-05T00:38:06.316Z,101715.78
2023-01-05T00:43:28.012Z,101711.31
2023-01-05T00:48:49.666Z,101703.19
2023-01-05T00:54:11.374Z,101717.31
2023-01-05T00:59:33.651Z,101713.09
2023-01-05T01:04:55.360Z,101701.38
2023-01-05T01:10:17.315Z,101717.16
2023-01-05T01:15:38.990Z,101705.44
2023-01-05T01:21:00.835Z,101720.59
2023-01-05T01:26:22.536Z,101715.28
2023-01-05T01:31:47.175Z,101726.38
2023-01-05T01:37:08.995Z,101732.38
2023-01-05T01:42:30.670Z,101744.53
2023-01-05T01:47:58.830Z,101747.31
2023-01-05T01:53:32.205Z,101747.81
2023-01-05T01:58:54.312Z,101751.66
2023-01-05T02:04:16.337Z,101759.09
2023-01-05T02:09:38.480Z,101773.22
2023-01-05T02:15:35.361Z,101777.06
2023-01-05T02:21:16.541Z,101783.44
2023-01-05T02:27:16.497Z,101777.88
2023-01-05T02:33:01.058Z,101773.66
2023-01-05T02:38:41.273Z,101778.56
2023-01-05T02:44:03.280Z,101771.81
2023-01-05T02:49:25.254Z,101781.22
2023-01-05T02:55:00.420Z,101772.66
2023-01-05T03:00:33.625Z,101760.94
2023-01-05T03:06:01.618Z,101769.50
2023-01-05T03:11:44.053Z,101775.03
2023-01-05T03:17:10.934Z,101779.09
2023-01-05T03:22:54.140Z,101782.09
2023-01-05T03:28:40.165Z,101773.78
2023-01-05T03:34:32.024Z,101783.16
2023-01-05T03:39:53.738Z,101788.97
2023-01-05T03:45:17.506Z,101796.41
2023-01-05T03:50:39.312Z,101790.25
2023-01-05T03:56:01.005Z,101783.84
2023-01-05T04:01:22.823Z,101800.50
2023-01-05T04:06:44.599Z,101799.66
2023-01-05T04:12:06.527Z,101803.50
2023-01-05T04:17:28.261Z,101809.03
2023-01-05T04:22:49.926Z,101816.72
2023-01-05T04:28:11.640Z,101808.63
2023-01-05T04:33:33.381Z,101813.34
2023-01-05T04:38:55.303Z,101828.25
2023-01-05T04:44:16.991Z,101826.56
2023-01-05T04:49:38.686Z,101811.25
2023-01-05T04:55:00.475Z,101816.78
2023-01-05T05:00:22.251Z,101816.78
2023-01-05T05:05:43.935Z,101825.34
2023-01-05T05:11:06.907Z,101824.22
2023-01-05T05:16:28.908Z,101821.69
2023-01-05T05:21:50.868Z,101823.63
2023-01-05T05:27:12.599Z,101825.78
2023-01-05T05:32:37.095Z,101838.78
2023-01-05T05:38:02.701Z,101853.69
2023-01-05T05:43:24.456Z,101861.19
2023-01-05T05:48:46.182Z,101872.25
2023-01-05T05:54:07.902Z,101880.59
2023-01-05T05:59:29.590Z,101876.34
2023-01-05T06:04:51.283Z,101879.13
2023-01-05T06:10:12.979Z,101884.66
2023-01-05T06:15:34.908Z,101888.25
2023-01-05T06:21:01.482Z,101899.34
2023-01-05T06:26:23.551Z,101908.09
2023-01-05T06:31:45.271Z,101913.22
2023-01-05T06:37:07.072Z,101920.22
2023-01-05T06:42:28.868Z,101915.72
2023-01-05T06:47:50.605Z,101921.44
2023-01-05T06:53:12.391Z,101936.13
2023-01-05T06:58:34.085Z,101939.16
2023-01-05T07:03:55.911Z,101945.75
2023-01-05T07:09:17.818Z,101944.06
2023-01-05T07:14:39.840Z,101952.59
2023-01-05T07:20:01.545Z,101953.91
2023-01-05T07:25:23.240Z,101960.53
2023-01-05T07:30:51.495Z,101967.13
2023-01-05T07:36:13.589Z,101962.03
2023-01-05T07:41:35.368Z,101965.88
2023-01-05T07:46:57.116Z,101975.25
2023-01-05T07:52:18.929Z,101982.50
2023-01-05T07:57:40.796Z,101994.66
2023-01-05T08:03:02.615Z,101999.34
2023-01-05T08:08:25.002Z,102000.63
2023-01-05T08:14:03.039Z,102000.63
2023-01-05T08:19:24.857Z,102010.03
2023-01-05T08:24:46.615Z,102021.13
2023-01-05T08:30:08.923Z,102016.66
2023-01-05T08:35:30.802Z,102019.44
2023-01-05T08:40:52.804Z,102012.19
2023-01-05T08:46:14.875Z,102016.84
2023-01-05T08:51:36.814Z,102018.78
2023-01-05T08:56:58.531Z,102033.72
2023-01-05T09:02:25.572Z,102047.56
2023-01-05T09:07:47.833Z,102052.25
2023-01-05T09:13:10.983Z,102063.31
2023-01-05T09:18:32.864Z,102056.94
2023-01-05T09:23:54.568Z,102054.19
2023-01-05T09:29:16.360Z,102056.94
2023-01-05T09:34:38.103Z,102061.66
2023-01-05T09:39:59.810Z,102068.03
2023-01-05T09:45:27.294Z,102075.50
2023-01-05T09:50:50.724Z,102070.16
2023-01-05T10:02:37.204Z,102094.03
2023-01-05T10:08:17.166Z,102092.34
2023-01-05T10:13:42.955Z,102095.34
2023-01-05T10:19:04.729Z,102091.69
2023-01-05T10:24:54.297Z,102097.22
2023-01-05T10:30:42.618Z,102096.41
2023-01-05T10:36:34.457Z,102091.06
2023-01-05T10:42:11.340Z,102095.75
2023-01-05T10:47:37.648Z,102101.31
2023-01-05T10:53:01.417Z,102102.13
2023-01-05T10:58:24.498Z,102106.00
2023-01-05T11:09:30.965Z,102113.69
2023-01-05T11:14:59.004Z,102104.72
2023-01-05T11:20:21.115Z,102086.41
2023-01-05T11:25:42.839Z,102088.09
2023-01-05T11:31:06.941Z,102087.22
2023-01-05T11:36:28.727Z,102088.09
2023-01-05T11:41:50.545Z,102091.09
2023-01-05T11:47:21.694Z,102092.78
2023-01-05T11:52:46.535Z,102081.91
2023-01-05T11:58:14.247Z,102074.63
2023-01-05T12:04:02.044Z,102071.88
2023-01-05T12:09:34.648Z,102071.22
2023-01-05T12:15:34.144Z,102065.50
2023-01-05T12:21:04.969Z,102069.31
2023-01-05T12:26:55.510Z,102067.38
2023-01-05T12:39:28.371Z,102066.75
2023-01-05T12:45:19.668Z,102068.47
2023-01-05T12:51:22.117Z,102062.09
2023-01-05T12:57:08.952Z,102055.66
2023-01-05T13:02:45.276Z,102044.59
2023-01-05T13:08:29.644Z,102045.47
2023-01-05T13:13:59.914Z,102032.91
2023-01-05T13:19:34.597Z,102026.25
2023-01-05T13:25:18.899Z,102032.03
2023-01-05T13:30:53.340Z,102030.13
2023-01-05T13:36:23.960Z,102017.34
2023-01-05T13:42:01.404Z,102025.84
2023-01-05T13:47:45.851Z,102025.00
2023-01-05T13:53:24.755Z,102025.84
2023-01-05T13:59:15.610Z,102022.44
2023-01-05T14:04:46.904Z,102027.16
2023-01-05T14:10:23.511Z,102019.47
2023-01-05T14:15:45.278Z,102024.38
2023-01-05T14:21:11.005Z,102031.63
2023-01-05T14:27:00.362Z,102021.38
2023-01-05T14:32:45.073Z,102026.09
2023-01-05T14:38:23.584Z,102024.16
2023-01-05T14:43:55.184Z,102022.69
2023-01-05T14:49:39.556Z,102015.00
2023-01-05T14:55:07.139Z,102014.38
2023-01-05T15:00:57.879Z,102019.69
2023-01-05T15:06:24.110Z,102015.22
2023-01-05T15:12:09.020Z,102016.06
2023-01-05T15:17:55.463Z,102009.69
2023-01-05T15:29:37.806Z,101998.81
2023-01-05T15:35:05.490Z,102008.81
2023-01-05T15:40:32.793Z,101990.50
2023-01-05T15:45:54.767Z,101981.56
2023-01-05T15:51:25.008Z,101983.47
2023-01-05T15:56:46.716Z,101984.56
2023-01-05T16:02:37.991Z,101973.47
2023-01-05T16:08:08.550Z,101980.06
2023-01-05T16:13:40.380Z,101971.78
2023-01-05T16:19:25.247Z,101970.94
2023-01-05T16:24:49.683Z,101963.69
2023-01-05T16:30:31.730Z,101963.69
2023-01-05T16:36:07.699Z,101950.91
2023-01-05T16:41:29.631Z,101953.03
2023-01-05T16:47:08.475Z,101956.44
2023-01-05T16:52:38.996Z,101949.19
2023-01-05T16:58:29.600Z,101938.75
2023-01-05T17:03:51.930Z,101938.97
2023-01-05T17:09:34.408Z,101936.00
2023-01-05T17:15:00.877Z,101939.81
2023-01-05T17:20:29.844Z,101948.56
2023-01-05T17:31:35.360Z,101949.63
2023-01-05T17:37:00.596Z,101934.72
2023-01-05T17:42:41.303Z,101941.97
2023-01-05T17:48:03.023Z,101942.78
2023-01-05T17:53:24.720Z,101940.91
2023-01-05T17:58:46.400Z,101927.88
2023-01-05T18:04:08.396Z,101937.06
2023-01-05T18:09:30.204Z,101925.97
2023-01-05T18:14:51.963Z,101933.22
2023-01-05T18:20:16.853Z,101916.38
2023-01-05T18:25:40.502Z,101922.66
2023-01-05T18:31:09.584Z,101916.88
2023-01-05T18:36:31.332Z,101910.59
2023-01-05T18:41:53.091Z,101906.97
2023-01-05T18:47:14.790Z,101906.38
2023-01-05T18:52:36.516Z,101914.38
2023-01-05T18:57:58.170Z,101911.44
2023-01-05T19:03:20.012Z,101896.91
2023-01-05T19:08:42.744Z,101903.44
2023-01-05T19:14:05.963Z,101918.09
2023-01-05T19:19:27.757Z,101922.72
2023-01-05T19:24:49.413Z,101911.56
2023-01-05T19:30:11.852Z,101906.72
2023-01-05T19:35:33.538Z,101904.59
2023-01-05T19:40:55.238Z,101897.88
2023-01-05T19:46:18.670Z,101898.25
2023-01-05T19:51:40.625Z,101894.91
2023-01-05T19:57:02.378Z,101888.78
2023-01-05T20:02:25.997Z,101898.56
2023-01-05T20:07:49.366Z,101892.63
2023-01-05T20:13:11.085Z,101891.88
2023-01-05T20:18:33.827Z,101883.28
2023-01-05T20:23:55.690Z,101884.97
2023-01-05T20:29:19.509Z,101882.94
2023-01-05T20:34:43.194Z,101883.28
2023-01-05T20:40:05.745Z,101889.38
2023-01-05T20:45:27.561Z,101889.31
2023-01-05T20:50:49.287Z,101888.66
2023-01-05T20:56:13.945Z,101880.44
2023-01-05T21:01:36.527Z,101882.75
2023-01-05T21:07:01.244Z,101884.78
2023-01-05T21:12:23.059Z,101878.72
2023-01-05T21:17:44.852Z,101888.06
2023-01-05T21:23:06.543Z,101881.66
2023-01-05T21:28:29.297Z,101875.00
2023-01-05T21:33:52.758Z,101873.94
2023-01-05T21:39:22.088Z,101877.91
2023-01-05T21:44:43.894Z,101882.38
2023-01-05T21:50:07.461Z,101881.75
2023-01-05T21:55:47.663Z,101877.03
2023-01-05T22:01:09.613Z,101860.81
2023-01-05T22:06:31.880Z,101852.69
2023-01-05T22:11:53.657Z,101845.34
2023-01-05T22:17:15.400Z,101838.69
2023-01-05T22:22:37.143Z,101830.31
2023-01-05T22:27:58.926Z,101831.72
2023-01-05T22:33:21.029Z,101823.94
2023-01-05T22:38:44.844Z,101838.19
2023-01-05T22:44:07.427Z,101826.28
2023-01-05T22:49:30.754Z,101840.25
2023-01-05T22:54:52.509Z,101845.88
2023-01-05T23:00:14.579Z,101828.47
2023-01-05T23:05:39.066Z,101838.31
2023-01-05T23:11:10.467Z,101835.41
2023-01-05T23:16:34.082Z,101835.25
2023-01-05T23:21:56.239Z,101827.00
2023-01-05T23:27:17.980Z,101834.94
2023-01-05T23:32:39.647Z,101830.91
2023-01-05T23:38:01.428Z,101824.16
2023-01-05T23:43:25.384Z,101821.84
2023-01-05T23:48:47.894Z,101815.91
2023-01-05T23:54:10.920Z,101815.53
2023-01-05T23:59:35.702Z,101803.81
